Nearby METAR Reports

Sorted by Distance from Carson Valley Weather Station - Minden, Nevada

 

KMEV - Minden, Nevada, USA
Distance from station: SSW 3mi, 5km
Updated: Tue, 07-Apr-2020 6:35pm PDT
Mostly cloudy
Mostly cloudy
 Wind from ENE
Wind: ENE 14 mph , 22 km/h
Temperature: 52°F , 11°C
Dew Point: 21°F , -6°C
Humidity: 30%
Barometer: 30.01 inHg , 1016.3 hPa
Clouds: Mostly cloudy
Visibility: 10 miles , 16 km
Cloud details: Few Clouds 8000 ft
Mostly cloudy 9500 ft
2020/04/08 01:35 KMEV 080135Z AUTO 06012KT 10SM FEW080 BKN095 11/M06 A3001 RMK AO2
KCXP - Carson City, Nevada, USA
Distance from station: N 10mi, 16km
Updated: Tue, 07-Apr-2020 6:55pm PDT
Clear
Clear
 Wind from ENE
Wind: ENE 13 mph , 20 km/h, Gust: 20 mph , 31 km/h
Temperature: 54°F , 12°C
Dew Point: 27°F , -3°C
Humidity: 35%
Barometer: 30.00 inHg , 1015.9 hPa
Clouds: Clear
Visibility: 10 miles , 16 km
2020/04/08 01:55 KCXP 080155Z AUTO 06011G17KT 10SM CLR 12/M03 A3000 RMK AO2
 
KTVL - South Lake Tahoe, California, USA
Distance from station: WSW 18mi, 29km
Updated: Tue, 07-Apr-2020 6:53pm PDT
Mostly cloudy
Mostly cloudy
 Wind from calm
Wind: Calm
Temperature: 37°F , 3°C
Dew Point: 32°F , 0°C
Humidity: 81%
Barometer: 30.02 inHg , 1016.6 hPa
Clouds: Mostly cloudy
Visibility: 10 miles , 16 km
Cloud details: Mostly cloudy 6000 ft
2020/04/08 01:53 KTVL 080153Z AUTO 00000KT 10SM BKN060 03/00 A3002 RMK AO2 SLP162 T00280000 $
KTRK - Truckee Tahoe, California, USA
Distance from station: NW 29mi, 46km
Updated: Tue, 07-Apr-2020 6:35pm PDT
Mostly cloudy
Mostly cloudy
 Wind from E
Wind: E 8 mph , 13 km/h
Temperature: 45°F , 7°C
Wind Chill: 41°F , 5°C
Dew Point: 27°F , -3°C
Humidity: 49%
Barometer: 30.05 inHg , 1017.6 hPa
Clouds: Mostly cloudy
Visibility: 10 miles , 16 km
Cloud details: Partly cloudy 6500 ft
Mostly cloudy 7500 ft
2020/04/08 01:35 KTRK 080135Z AUTO 09007KT 10SM SCT065 BKN075 07/M03 A3005 RMK AO2
 
KRNO - Reno, Nevada, USA
Distance from station: N 32mi, 51km
Updated: Tue, 07-Apr-2020 5:55pm PDT
Mostly cloudy
Mostly cloudy
 Wind from NE
Wind: NE 16 mph , 26 km/h
Temperature: 55°F , 13°C
Dew Point: 28°F , -2°C
Humidity: 36%
Barometer: 30.03 inHg , 1016.9 hPa
Clouds: Mostly cloudy
Visibility: 10 miles , 16 km
Cloud details: Partly cloudy 6500 ft
Mostly cloudy 11000 ft
2020/04/08 00:55 KRNO 080055Z 05014KT 10SM SCT065 BKN110 13/M02 A3003 RMK AO2 RAB47E54 SLP154 P0000 T01281017
KRTS - Reno/Stead, Nevada, USA
Distance from station: NNW 44mi, 71km
Updated: Tue, 07-Apr-2020 6:35pm PDT
Few Clouds
Few Clouds
 Wind from E
Wind: E 13 mph , 20 km/h
Temperature: 52°F , 11°C
Dew Point: 25°F , -4°C
Humidity: 35%
Barometer: 30.04 inHg , 1017.3 hPa
Clouds: Few Clouds
Visibility: 10 miles , 16 km
Cloud details: Few Clouds 7000 ft
Few Clouds 8500 ft
2020/04/08 01:35 KRTS 080135Z AUTO 08011KT 10SM FEW070 FEW085 11/M04 A3004 RMK AO2
 
KBAN - Bridgeport(Mcmwt, California, USA
Distance from station: SSE 49mi, 79km
Updated: Tue, 07-Apr-2020 6:52pm PDT
Overcast
Overcast
 Wind from calm
Wind: Calm
Temperature: 41°F , 5°C
Dew Point: 21°F , -6°C
Humidity: 45%
Barometer: 30.00 inHg , 1015.9 hPa
Clouds: Overcast
Visibility: 10 miles , 16 km
Cloud details: Overcast 6000 ft
2020/04/08 01:52 KBAN 080152Z AUTO 00000KT 10SM OVC060 05/M06 A3000 RMK AO2 SLP154 T00501056 $
KBLU - Emigrant Gap, California, USA
Distance from station: WNW 55mi, 89km
Updated: Tue, 07-Apr-2020 6:52pm PDT
Overcast
Overcast
 Wind from calm
Wind: Calm
Temperature: 39°F , 4°C
Dew Point: 37°F , 3°C
Humidity: 93%
Barometer: 30.06 inHg , 1017.9 hPa
Clouds: Overcast
Visibility: 10 miles , 16 km
Cloud details: Few Clouds 500 ft
Mostly cloudy 1000 ft
Overcast 1600 ft
2020/04/08 01:52 KBLU 080152Z AUTO 00000KT 10SM FEW005 BKN010 OVC016 04/03 A3006 RMK AO2 CIG 008V012 SLP179 T00440028 $
 
KPVF - Placerville, California, USA
Distance from station: WSW 60mi, 96km
Updated: Tue, 07-Apr-2020 6:35pm PDT
Clear
Clear
 Wind from NNE
Wind: NNE 6 mph , 9 km/h
Temperature: 52°F , 11°C
Dew Point: 41°F , 5°C
Humidity: 67%
Barometer: 30.04 inHg , 1017.3 hPa
Clouds: Clear
Visibility: 10 miles , 16 km
2020/04/08 01:35 KPVF 080135Z AUTO 02005KT 10SM CLR 11/05 A3004 RMK AO1
KNFL - Fallon Nas, Nevada, USA
Distance from station: ENE 61mi, 97km
Updated: Tue, 07-Apr-2020 5:56pm PDT
Mostly cloudy
Mostly cloudy
 Wind from ENE
Wind: ENE 7 mph , 11 km/h
Temperature: 57°F , 14°C
Dew Point: 34°F , 1°C
Humidity: 41%
Barometer: 30.01 inHg , 1016.3 hPa
Clouds: Mostly cloudy
Visibility: 10 miles , 16 km
Cloud details: Partly cloudy 3000 ft
Mostly cloudy 5000 ft
Mostly cloudy 10000 ft
Mostly cloudy 25000 ft
2020/04/08 00:56 KNFL 080056Z 06006KT 10SM SCT030 BKN050 BKN100 BKN250 14/01 A3001 RMK AO2 SLP132 SH DSNT N T01440006
 
KHTH - Hawthorne, Nevada, USA
Distance from station: ESE 68mi, 109km
Updated: Fri, 17-Jan-2020 11:35am PST
NOT Current
Clear
Clear
 Wind from SSE
Wind: SSE 6 mph , 9 km/h
Temperature: 41°F , 5°C
Wind Chill: 37°F , 3°C
Dew Point: 9°F , -13°C
Humidity: 26%
Barometer: 30.26 inHg , 1024.7 hPa
Clouds: Clear
Visibility: 10 miles , 16 km
2020/01/17 19:35 KHTH 171935Z AUTO 15005KT 10SM CLR 05/M13 A3026 RMK A01
KGOO - Grass Valley, California, USA
Distance from station: W 70mi, 112km
Updated: Tue, 07-Apr-2020 6:55pm PDT
Clear
Clear
 Wind from calm
Wind: Calm
Temperature: 48°F , 9°C
Dew Point: 46°F , 8°C
Humidity: 94%
Barometer: 30.03 inHg , 1016.9 hPa
Clouds: Clear
Visibility: 10 miles , 16 km
2020/04/08 01:55 KGOO 080155Z AUTO 00000KT 10SM CLR 09/08 A3003 RMK A01
 
KAUN - Auburn Muni, California, USA
Distance from station: W 73mi, 118km
Updated: Tue, 07-Apr-2020 6:35pm PDT
Partly cloudy
Partly cloudy
 Wind from calm
Wind: Calm
Temperature: 57°F , 14°C
Dew Point: 45°F , 7°C
Humidity: 63%
Barometer: 30.03 inHg , 1016.9 hPa
Clouds: Partly cloudy
Visibility: 10 miles , 16 km
Cloud details: Few Clouds 3800 ft
Partly cloudy 12000 ft
2020/04/08 01:35 KAUN 080135Z AUTO 00000KT 10SM FEW038 SCT120 14/07 A3003 RMK A01
KO22 - Columbia, California, USA
Distance from station: SSW 79mi, 127km
Updated: Tue, 07-Apr-2020 6:55pm PDT
Clear
Clear
 Wind from varies
Wind: varies 7 mph , 11 km/h
Temperature: 57°F , 14°C
Dew Point: 43°F , 6°C
Humidity: 59%
Barometer: 29.98 inHg , 1015.2 hPa
Clouds: Clear
Visibility: 10 miles , 16 km
2020/04/08 01:55 KO22 080155Z AUTO VRB06KT 10SM CLR 14/06 A2998 RMK A01
 
KLHM - Lincoln, California, USA
Distance from station: W 88mi, 141km
Updated: Tue, 07-Apr-2020 6:35pm PDT
Clear
Clear
 Wind from calm
Wind: Calm
Temperature: 63°F , 17°C
Dew Point: 45°F , 7°C
Humidity: 52%
Barometer: 30.01 inHg , 1016.3 hPa
Clouds: Clear
Visibility: 10 miles , 16 km
2020/04/08 01:35 KLHM 080135Z AUTO 00000KT 10SM CLR 17/07 A3001 RMK AO1
KBAB - Beale Afb/Marysv, California, USA
Distance from station: W 91mi, 147km
Updated: Tue, 07-Apr-2020 6:44pm PDT
Overcast
Overcast
 Wind from calm
Wind: Calm
Temperature: 64°F , 18°C
Dew Point: 45°F , 7°C
Humidity: 49%
Barometer: 30.00 inHg , 1015.9 hPa
Clouds: Overcast
Visibility: 10 miles , 16 km
Cloud details: Overcast 13000 ft
2020/04/08 01:44 KBAB 080144Z AUTO 00000KT 10SM OVC130 18/07 A3000 RMK AO2 DZB41E44 SLP162 $
 
KMHR - Mather Field, California, USA
Distance from station: WSW 91mi, 147km
Updated: Tue, 07-Apr-2020 5:50pm PDT
Partly cloudy
Partly cloudy
 Wind from SW
Wind: SW 5 mph , 7 km/h
Temperature: 64°F , 18°C
Dew Point: 43°F , 6°C
Humidity: 46%
Barometer: 30.02 inHg , 1016.6 hPa
Clouds: Partly cloudy
Visibility: 10 miles , 16 km
Cloud details: Partly cloudy 10000 ft
2020/04/08 00:50 KMHR 080050Z 22004KT 10SM SCT100 18/06 A3002
KLOL - Lovelock, Nevada, USA
Distance from station: NE 94mi, 151km
Updated: Tue, 07-Apr-2020 6:53pm PDT
Clear
Clear
 Wind from SSW
Wind: SSW 5 mph , 7 km/h
Temperature: 61°F , 16°C
Dew Point: 30°F , -1°C
Humidity: 31%
Barometer: 30.03 inHg , 1016.9 hPa
Clouds: Clear
Visibility: 10 miles , 16 km
2020/04/08 01:53 KLOL 080153Z AUTO 20004KT 10SM CLR 16/M01 A3003 RMK AO2 SLP161 T01561011
 
KMCC - Mcclellan Afb, California, USA
Distance from station: WSW 94mi, 151km
Updated: Tue, 07-Apr-2020 6:35pm PDT
Clear
Clear
 Wind from NW
Wind: NW 7 mph , 11 km/h
Temperature: 64°F , 18°C
Dew Point: 45°F , 7°C
Humidity: 49%
Barometer: 30.01 inHg , 1016.3 hPa
Clouds: Clear
Visibility: 10 miles , 16 km
2020/04/08 01:35 KMCC 080135Z AUTO 32006KT 10SM CLR 18/07 A3001 RMK AO2
KMYV - Marysville, California, USA
Distance from station: W 99mi, 159km
Updated: Tue, 07-Apr-2020 6:53pm PDT
Clear
Clear
 Wind from SE
Wind: SE 5 mph , 7 km/h
Temperature: 64°F , 18°C
Dew Point: 46°F , 8°C
Humidity: 52%
Barometer: 30.01 inHg , 1016.3 hPa
Clouds: Clear
Visibility: 10 miles , 16 km
2020/04/08 01:53 KMYV 080153Z AUTO 13004KT 10SM CLR 18/08 A3001 RMK AO2 SLP166 T01780078
 
KSVE - Susanville Muni, California, USA
Distance from station: NNW 102mi, 164km
Updated: Tue, 07-Apr-2020 6:55pm PDT
Partly cloudy
Partly cloudy
 Wind from ESE
Wind: ESE 6 mph , 9 km/h
Temperature: 57°F , 14°C
Dew Point: 32°F , 0°C
Humidity: 39%
Barometer: 30.04 inHg , 1017.3 hPa
Clouds: Partly cloudy
Visibility: 10 miles , 16 km
Cloud details: Partly cloudy 7000 ft
Partly cloudy 8000 ft
2020/04/08 01:55 KSVE 080155Z AUTO 12005KT 10SM SCT070 SCT080 14/00 A3004 RMK AO2
KSAC - Sacramento, California, USA
Distance from station: WSW 103mi, 165km
Updated: Tue, 07-Apr-2020 6:53pm PDT
Clear
Clear
 Wind from NW
Wind: NW 7 mph , 11 km/h
Temperature: 64°F , 18°C
Dew Point: 45°F , 7°C
Humidity: 49%
Barometer: 30.00 inHg , 1015.9 hPa
Clouds: Clear
Visibility: 10 miles , 16 km
2020/04/08 01:53 KSAC 080153Z 31006KT 10SM CLR 18/07 A3000 RMK AO2 SLP159 T01780067
 
KSMF - Sacramento/Metro, California, USA
Distance from station: WSW 104mi, 167km
Updated: Tue, 07-Apr-2020 6:53pm PDT
Few Clouds
Few Clouds
 Wind from calm
Wind: Calm
Temperature: 64°F , 18°C
Dew Point: 43°F , 6°C
Humidity: 46%
Barometer: 30.00 inHg , 1015.9 hPa
Clouds: Few Clouds
Visibility: 10 miles , 16 km
Cloud details: Few Clouds 5000 ft
2020/04/08 01:53 KSMF 080153Z 00000KT 10SM FEW050 18/06 A3000 RMK AO2 SLP159 T01830061
KOVE - Oroville, California, USA
Distance from station: WNW 106mi, 171km
Updated: Tue, 07-Apr-2020 6:53pm PDT
Partly cloudy
Partly cloudy
 Wind from SSE
Wind: SSE 6 mph , 9 km/h
Temperature: 66°F , 19°C
Dew Point: 46°F , 8°C
Humidity: 49%
Barometer: 30.03 inHg , 1016.9 hPa
Clouds: Partly cloudy
Visibility: 10 miles , 16 km
Cloud details: Partly cloudy 11000 ft
2020/04/08 01:53 KOVE 080153Z AUTO 16005KT 10SM SCT110 19/08 A3003 RMK AO2 SLP170 T01890078
 
KMMH - Mammoth/June Lak, California, USA
Distance from station: SSE 110mi, 177km
Updated: Tue, 07-Apr-2020 6:41pm PDT
Clear
Clear
 Wind from SE
Wind: SE 8 mph , 13 km/h
Temperature: 39°F , 4°C
Wind Chill: 33°F , 1°C
Dew Point: 23°F , -5°C
Humidity: 52%
Barometer: 30.02 inHg , 1016.6 hPa
Clouds: Clear
Visibility: 10 miles , 16 km
2020/04/08 01:41 KMMH 080141Z AUTO 14007KT 10SM CLR 04/M05 A3002 RMK AO2
KSCK - Stockton, California, USA
Distance from station: SW 114mi, 183km
Updated: Tue, 07-Apr-2020 5:55pm PDT
Clear
Clear
 Wind from NNW
Wind: NNW 8 mph , 13 km/h
Temperature: 64°F , 18°C
Dew Point: 45°F , 7°C
Humidity: 49%
Barometer: 30.00 inHg , 1015.9 hPa
Clouds: Clear
Visibility: 10 miles , 16 km
2020/04/08 00:55 KSCK 080055Z 33007KT 10SM CLR 18/07 A3000 RMK AO2 SLP158 T01830067
 
KEDU - Davis, California, USA
Distance from station: WSW 116mi, 187km
Updated: Tue, 07-Apr-2020 6:55pm PDT
Clear
Clear
 Wind from calm
Wind: Calm
Temperature: 63°F , 17°C
Dew Point: 43°F , 6°C
Humidity: 49%
Barometer: 30.02 inHg , 1016.6 hPa
Clouds: Clear
Visibility: 10 miles , 16 km
2020/04/08 01:55 KEDU 080155Z AUTO 00000KT 10SM CLR 17/06 A3002 RMK AO1
KMOD - Modesto, California, USA
Distance from station: SW 119mi, 191km
Updated: Tue, 07-Apr-2020 6:53pm PDT
Clear
Clear
 Wind from NNW
Wind: NNW 14 mph , 22 km/h
Temperature: 63°F , 17°C
Dew Point: 41°F , 5°C
Humidity: 45%
Barometer: 29.97 inHg , 1014.9 hPa
Clouds: Clear
Visibility: 10 miles , 16 km
2020/04/08 01:53 KMOD 080153Z 33012KT 10SM CLR 17/05 A2997 RMK AO2 SLP149 T01720050
 
KMER - Merced/Castle Af, California, USA
Distance from station: SSW 123mi, 198km
Updated: Tue, 07-Apr-2020 4:45pm PDT
NOT Current
Clear
Clear
 Wind from NW
Wind: NW 10 mph , 17 km/h
Temperature: 68°F , 20°C
Dew Point: 43°F , 6°C
Humidity: 40%
Barometer: 30.01 inHg , 1016.3 hPa
Clouds: Clear
Visibility: 10 miles , 16 km
2020/04/07 23:45 KMER 072345Z 32009KT 10SM SKC 20/06 A3001
KCIC - Chico Municipal, California, USA
Distance from station: WNW 124mi, 199km
Updated: Tue, 07-Apr-2020 6:47pm PDT
Partly cloudy
Partly cloudy
 Wind from SE
Wind: SE 9 mph , 15 km/h
Temperature: 64°F , 18°C
Dew Point: 46°F , 8°C
Humidity: 52%
Barometer: 30.03 inHg , 1016.9 hPa
Clouds: Partly cloudy
Visibility: 25 miles , 40 km
Cloud details: Partly cloudy 12000 ft
2020/04/08 01:47 KCIC 080147Z 14008KT 25SM SCT120 18/08 A3003 RMK LAST
 
KMCE - Merced, California, USA
Distance from station: SSW 128mi, 207km
Updated: Tue, 07-Apr-2020 6:53pm PDT
Clear
Clear
 Wind from NNW
Wind: NNW 9 mph , 15 km/h
Temperature: 61°F , 16°C
Dew Point: 45°F , 7°C
Humidity: 55%
Barometer: 29.95 inHg , 1014.2 hPa
Clouds: Clear
Visibility: 10 miles , 16 km
2020/04/08 01:53 KMCE 080153Z AUTO 33008KT 10SM CLR 16/07 A2995 RMK AO2 SLP141 T01560072
KVCB - Vacaville, California, USA
Distance from station: WSW 128mi, 207km
Updated: Tue, 07-Apr-2020 6:53pm PDT
Clear
Clear
 Wind from WSW
Wind: WSW 5 mph , 7 km/h
Temperature: 63°F , 17°C
Dew Point: 46°F , 8°C
Humidity: 56%
Barometer: 30.01 inHg , 1016.3 hPa
Clouds: Clear
Visibility: 10 miles , 16 km
2020/04/08 01:53 KVCB 080153Z AUTO 24004KT 10SM CLR 17/08 A3001 RMK AO2 SLP163 T01720078 PNO
 
KSUU - Travis Afb/Fairf, California, USA
Distance from station: WSW 130mi, 209km
Updated: Tue, 07-Apr-2020 5:58pm PDT
Clear
Clear
 Wind from W
Wind: W 5 mph , 7 km/h
Temperature: 66°F , 19°C
Dew Point: 45°F , 7°C
Humidity: 46%
Barometer: 30.02 inHg , 1016.6 hPa
Clouds: Clear
Visibility: 10 miles , 16 km
2020/04/08 00:58 KSUU 080058Z AUTO 27004KT 10SM CLR 19/07 A3002 RMK AO2 SLP173 T01940065 $
KBIH - Bishop, California, USA
Distance from station: SE 137mi, 221km
Updated: Tue, 07-Apr-2020 5:56pm PDT
Mostly cloudy
Mostly cloudy
 Wind from E
Wind: E 15 mph , 24 km/h
Temperature: 57°F , 14°C
Dew Point: 25°F , -4°C
Humidity: 29%
Barometer: 29.97 inHg , 1014.9 hPa
Clouds: Mostly cloudy
Visibility: 10 miles , 16 km
Cloud details: Mostly cloudy 7500 ft
Mostly cloudy 10000 ft
2020/04/08 00:56 KBIH 080056Z AUTO 10013KT 10SM BKN075 BKN100 14/M04 A2997 RMK AO2 SLP133 T01441044
 
KMAE - Madera, California, USA
Distance from station: S 144mi, 231km
Updated: Tue, 07-Apr-2020 6:53pm PDT
Clear
Clear
 Wind from NW
Wind: NW 13 mph , 20 km/h
Temperature: 61°F , 16°C
Dew Point: 45°F , 7°C
Humidity: 55%
Barometer: 29.94 inHg , 1013.9 hPa
Clouds: Clear
Visibility: 10 miles , 16 km
2020/04/08 01:53 KMAE 080153Z AUTO 32011KT 10SM CLR 16/07 A2994 RMK AO2 SLP138 T01610072
KCCR - Concord, California, USA
Distance from station: WSW 145mi, 233km
Updated: Tue, 07-Apr-2020 6:53pm PDT
Clear
Clear
 Wind from WNW
Wind: WNW 15 mph , 24 km/h
Temperature: 63°F , 17°C
Dew Point: 45°F , 7°C
Humidity: 52%
Barometer: 30.01 inHg , 1016.3 hPa
Clouds: Clear
Visibility: 10 miles , 16 km
2020/04/08 01:53 KCCR 080153Z 30013KT 10SM CLR 17/07 A3001 RMK AO2 SLP147 T01670072
 
KLVK - Livermore, California, USA
Distance from station: SW 146mi, 236km
Updated: Tue, 07-Apr-2020 6:53pm PDT
Clear
Clear
 Wind from N
Wind: N 7 mph , 11 km/h
Temperature: 61°F , 16°C
Dew Point: 39°F , 4°C
Humidity: 45%
Barometer: 29.99 inHg , 1015.6 hPa
Clouds: Clear
Visibility: 10 miles , 16 km
2020/04/08 01:53 KLVK 080153Z 01006KT 10SM CLR 16/04 A2999 RMK AO2 SLP155 T01610039
KAPC - Napa, California, USA
Distance from station: WSW 150mi, 241km
Updated: Tue, 07-Apr-2020 6:54pm PDT
Clear
Clear
 Wind from W
Wind: W 16 mph , 26 km/h
Temperature: 57°F , 14°C
Dew Point: 46°F , 8°C
Humidity: 67%
Barometer: 30.02 inHg , 1016.6 hPa
Clouds: Clear
Visibility: 10 miles , 16 km
2020/04/08 01:54 KAPC 080154Z 27014KT 10SM CLR 14/08 A3002 RMK AO2 SLP157 T01390078
 
KRBL - Red Bluff, California, USA
Distance from station: WNW 155mi, 249km
Updated: Tue, 07-Apr-2020 6:54pm PDT
Partly cloudy
Partly cloudy
 Wind from SSE
Wind: SSE 10 mph , 17 km/h
Temperature: 63°F , 17°C
Dew Point: 48°F , 9°C
Humidity: 59%
Barometer: 30.01 inHg , 1016.3 hPa
Clouds: Partly cloudy
Visibility: 10 miles , 16 km
Cloud details: Partly cloudy 12000 ft
2020/04/08 01:54 KRBL 080154Z AUTO 15009KT 10SM SCT120 17/09 A3001 RMK AO2 SLP161 T01720094
KFAT - Fresno, California, USA
Distance from station: S 156mi, 251km
Updated: Tue, 07-Apr-2020 6:53pm PDT
Mostly cloudy
Mostly cloudy
 Wind from NW
Wind: NW 15 mph , 24 km/h
Temperature: 63°F , 17°C
Dew Point: 43°F , 6°C
Humidity: 49%
Barometer: 29.92 inHg , 1013.2 hPa
Clouds: Mostly cloudy
Visibility: 10 miles , 16 km
Cloud details: Few Clouds 5000 ft
Partly cloudy 15000 ft
Mostly cloudy 20000 ft
2020/04/08 01:53 KFAT 080153Z 32013KT 10SM FEW050 SCT150 BKN200 17/06 A2992 RMK AO2 SLP131 T01720056
 
KTPH - Tonopah, Nevada, USA
Distance from station: ESE 158mi, 254km
Updated: Tue, 07-Apr-2020 5:56pm PDT
Mostly cloudy
Mostly cloudy
 Wind from ESE
Wind: ESE 12 mph , 19 km/h
Temperature: 48°F , 9°C
Wind Chill: 43°F , 6°C
Dew Point: 32°F , 0°C
Humidity: 54%
Barometer: 30.05 inHg , 1017.6 hPa
Clouds: Mostly cloudy
Visibility: 10 miles , 16 km
Cloud details: Partly cloudy 4300 ft
Mostly cloudy 5000 ft
Mostly cloudy 6000 ft
2020/04/08 00:56 KTPH 080056Z AUTO 12010KT 10SM SCT043 BKN050 BKN060 09/00 A3005 RMK AO2 SLP165 T00940000
KFCH - Fresno Chandler, California, USA
Distance from station: S 161mi, 258km
Updated: Tue, 07-Apr-2020 6:55pm PDT
Clear
Clear
 Wind from NW
Wind: NW 15 mph , 24 km/h
Temperature: 63°F , 17°C
Dew Point: 43°F , 6°C
Humidity: 49%
Barometer: 29.93 inHg , 1013.5 hPa
Clouds: Clear
Visibility: 10 miles , 16 km
2020/04/08 01:55 KFCH 080155Z AUTO 31013KT 10SM CLR 17/06 A2993 RMK A01
 
KHWD - Hayward, California, USA
Distance from station: SW 161mi, 259km
Updated: Tue, 07-Apr-2020 6:54pm PDT
Few Clouds
Few Clouds
 Wind from WNW
Wind: WNW 14 mph , 22 km/h
Temperature: 57°F , 14°C
Dew Point: 45°F , 7°C
Humidity: 63%
Barometer: 30.01 inHg , 1016.3 hPa
Clouds: Few Clouds
Visibility: 10 miles , 16 km
Cloud details: Few Clouds 3000 ft
2020/04/08 01:54 KHWD 080154Z 29012KT 10SM FEW030 14/07 A3001 RMK AO2 SLP172 T01390067
KOAK - Oakland, California, USA
Distance from station: SW 164mi, 264km
Updated: Tue, 07-Apr-2020 6:53pm PDT
Few Clouds
Few Clouds
 Wind from WNW
Wind: WNW 15 mph , 24 km/h
Temperature: 61°F , 16°C
Dew Point: 43°F , 6°C
Humidity: 52%
Barometer: 30.02 inHg , 1016.6 hPa
Clouds: Few Clouds
Visibility: 10 miles , 16 km
Cloud details: Few Clouds 3000 ft
2020/04/08 01:53 KOAK 080153Z 29013KT 10SM FEW030 16/06 A3002 RMK AO2 SLP166 T01610061 $
 
KWMC - Winnemucca, Nevada, USA
Distance from station: NE 164mi, 264km
Updated: Tue, 07-Apr-2020 6:15pm PDT
Mostly cloudy
Mostly cloudy
 Wind from E
Wind: E 15 mph , 24 km/h
Temperature: 57°F , 14°C
Dew Point: 34°F , 1°C
Humidity: 41%
Barometer: 30.03 inHg , 1016.9 hPa
Clouds: Mostly cloudy
Visibility: 10 miles , 16 km
Cloud details: Partly cloudy 7500 ft
Mostly cloudy 10000 ft
2020/04/08 01:15 KWMC 080115Z AUTO 09013KT 10SM SCT075 BKN100 14/01 A3003 RMK AO2 WSHFT 0055 T01390011
KDVO - Novato/Gnoss Fld, California, USA
Distance from station: WSW 165mi, 265km
Updated: Tue, 07-Apr-2020 6:35pm PDT
Clear
Clear
 Wind from NW
Wind: NW 13 mph , 20 km/h
Temperature: 57°F , 14°C
Dew Point: 45°F , 7°C
Humidity: 63%
Barometer: 30.05 inHg , 1017.6 hPa
Clouds: Clear
Visibility: 10 miles , 16 km
2020/04/08 01:35 KDVO 080135Z AUTO 31011KT 10SM CLR 14/07 A3005 RMK AO2
 
KO69 - Petaluma, California, USA
Distance from station: WSW 165mi, 265km
Updated: Tue, 07-Apr-2020 6:35pm PDT
Clear
Clear
 Wind from varies
Wind: varies 7 mph , 11 km/h, Gust: 15 mph , 24 km/h
Temperature: 57°F , 14°C
Dew Point: 46°F , 8°C
Humidity: 67%
Barometer: 30.06 inHg , 1017.9 hPa
Clouds: Clear
Visibility: 10 miles , 16 km
2020/04/08 01:35 KO69 080135Z AUTO VRB06G13KT 10SM CLR 14/08 A3006 RMK A01
KRHV - San Jose/Reid, California, USA
Distance from station: SW 165mi, 265km
Updated: Tue, 07-Apr-2020 6:47pm PDT
Few Clouds
Few Clouds
 Wind from NW
Wind: NW 9 mph , 15 km/h
Temperature: 59°F , 15°C
Dew Point: 43°F , 6°C
Humidity: 55%
Barometer: 30.01 inHg , 1016.3 hPa
Clouds: Few Clouds
Visibility: 10 miles , 16 km
Cloud details: Few Clouds 2000 ft
Few Clouds 5000 ft
2020/04/08 01:47 KRHV 080147Z 32008KT 10SM FEW020 FEW050 15/06 A3001
 
KSJC - San Jose, California, USA
Distance from station: SW 166mi, 267km
Updated: Tue, 07-Apr-2020 6:53pm PDT
Few Clouds
Few Clouds
 Wind from NNW
Wind: NNW 14 mph , 22 km/h
Temperature: 59°F , 15°C
Dew Point: 41°F , 5°C
Humidity: 51%
Barometer: 30.00 inHg , 1015.9 hPa
Clouds: Few Clouds
Visibility: 10 miles , 16 km
Cloud details: Few Clouds 3200 ft
Few Clouds 4700 ft
Few Clouds 9000 ft
2020/04/08 01:53 KSJC 080153Z 34012KT 10SM FEW032 FEW047 FEW090 15/05 A3000 RMK AO2 SLP159 T01500050
KE16 - San Martin, California, USA
Distance from station: SW 169mi, 273km
Updated: Thu, 14-Nov-2019 1:35am PST
NOT Current
Overcast
Overcast
 Wind from SE
Wind: SE 7 mph , 11 km/h
Temperature: 54°F , 12°C
Dew Point: 50°F , 10°C
Humidity: 88%
Barometer: 30.05 inHg , 1017.6 hPa
Clouds: Overcast
Visibility: 10 miles , 16 km
Cloud details: Overcast 1400 ft
2019/11/14 09:35 KE16 140935Z AUTO 13006KT 10SM OVC014 12/10 A3005 RMK AO2
 
KPAO - Palo Alto, California, USA
Distance from station: SW 169mi, 273km
Updated: Tue, 07-Apr-2020 5:47pm PDT
Few Clouds
Few Clouds
 Wind from NW
Wind: NW 16 mph , 26 km/h
Temperature: 61°F , 16°C
Dew Point: 43°F , 6°C
Humidity: 52%
Barometer: 30.03 inHg , 1016.9 hPa
Clouds: Few Clouds
Visibility: 10 miles , 16 km
Cloud details: Few Clouds 3000 ft
2020/04/08 00:47 KPAO 080047Z 31014KT 10SM FEW030 16/06 A3003
KNUQ - Moffett Nas/Mtn, California, USA
Distance from station: SW 170mi, 273km
Updated: Thu, 21-Nov-2019 8:56am PST
NOT Current

 
Barometer: 29.86 inHg , 1011.2 hPa
2019/11/21 16:56 KNUQ 211656Z AUTO A2986 RMK AO2 SLP116 PWINO $
 
KRDD - Redding, California, USA
Distance from station: NW 171mi, 275km
Updated: Tue, 07-Apr-2020 6:53pm PDT
Partly cloudy
Partly cloudy
 Wind from SE
Wind: SE 9 mph , 15 km/h
Temperature: 63°F , 17°C
Dew Point: 48°F , 9°C
Humidity: 59%
Barometer: 29.99 inHg , 1015.6 hPa
Clouds: Partly cloudy
Visibility: 10 miles , 16 km
Cloud details: Partly cloudy 11000 ft
2020/04/08 01:53 KRDD 080153Z 14008KT 10SM SCT110 17/09 A2999 RMK AO2 SLP156 T01720094
KSTS - Santa Rosa, California, USA
Distance from station: WSW 171mi, 275km
Updated: Tue, 07-Apr-2020 6:53pm PDT
Partly cloudy
Partly cloudy
 Wind from W
Wind: W 5 mph , 7 km/h
Temperature: 61°F , 16°C
Dew Point: 46°F , 8°C
Humidity: 59%
Barometer: 30.04 inHg , 1017.3 hPa
Clouds: Partly cloudy
Visibility: 10 miles , 16 km
Cloud details: Partly cloudy 4800 ft
2020/04/08 01:53 KSTS 080153Z 26004KT 10SM SCT048 16/08 A3004 RMK AO2 SLP165 T01560083
 
KSQL - San Carlos Airpo, California, USA
Distance from station: SW 173mi, 278km
Updated: Tue, 07-Apr-2020 6:49pm PDT
Few Clouds
Few Clouds
 Wind from WNW
Wind: WNW 13 mph , 20 km/h
Temperature: 57°F , 14°C
Dew Point: 41°F , 5°C
Humidity: 55%
Barometer: 30.02 inHg , 1016.6 hPa
Clouds: Few Clouds
Visibility: 10 miles , 16 km
Cloud details: Few Clouds 3000 ft
2020/04/08 01:49 KSQL 080149Z 29011KT 10SM FEW030 14/05 A3002
KCVH - Hollister Muni, California, USA
Distance from station: SSW 174mi, 280km
Updated: Tue, 07-Apr-2020 6:55pm PDT
Mostly cloudy
Mostly cloudy
 Wind from WSW
Wind: WSW 15 mph , 24 km/h
Temperature: 59°F , 15°C
Dew Point: 46°F , 8°C
Humidity: 63%
Barometer: 29.99 inHg , 1015.6 hPa
Clouds: Mostly cloudy
Visibility: 10 miles , 16 km
Cloud details: Partly cloudy 5000 ft
Mostly cloudy 6500 ft
Mostly cloudy 8000 ft
2020/04/08 01:55 KCVH 080155Z AUTO 24013KT 10SM SCT050 BKN065 BKN080 15/08 A2999 RMK A01
 
KSFO - San Francisco, California, USA
Distance from station: SW 174mi, 280km
Updated: Tue, 07-Apr-2020 5:56pm PDT
Few Clouds
Few Clouds
 Wind from W
Wind: W 18 mph , 30 km/h
Temperature: 57°F , 14°C
Dew Point: 45°F , 7°C
Humidity: 63%
Barometer: 30.05 inHg , 1017.6 hPa
Clouds: Few Clouds
Visibility: 10 miles , 16 km
Cloud details: Few Clouds 4500 ft
2020/04/08 00:56 KSFO 080056Z 28016KT 10SM FEW045 14/07 A3005 RMK AO2 SLP174 T01440067
KAAT - Alturas, California, USA
Distance from station: NNW 175mi, 281km
Updated: Tue, 07-Apr-2020 4:55pm PDT
NOT Current
Overcast
Overcast
 Wind from ENE
Wind: ENE 5 mph , 7 km/h
Temperature: 59°F , 15°C
Dew Point: 30°F , -1°C
Humidity: 34%
Barometer: 30.04 inHg , 1017.3 hPa
Clouds: Overcast
Visibility: 10 miles , 16 km
Cloud details: Overcast 9500 ft
2020/04/07 23:55 KAAT 072355Z AUTO 06004KT 10SM OVC095 15/M01 A3004 RMK AO2 SLP172 T01501011 10178 20094 55007 $
 
KBAM - Battle Mtn (vor), Nevada, USA
Distance from station: NE 182mi, 294km
Updated: Tue, 07-Apr-2020 6:55pm PDT
Overcast
Overcast
 Wind from WSW
Wind: WSW 3 mph , 6 km/h
Temperature: 59°F , 15°C
Dew Point: 36°F , 2°C
Humidity: 42%
Barometer: 30.03 inHg , 1016.9 hPa
Clouds: Overcast
Visibility: 10 miles , 16 km
Cloud details: Overcast 9000 ft
2020/04/08 01:55 KBAM 080155Z AUTO 24003KT 10SM OVC090 15/02 A3003 RMK AO1
KHAF - Half Moon Bay, California, USA
Distance from station: SW 184mi, 296km
Updated: Tue, 07-Apr-2020 6:55pm PDT
Clear
Clear
 Wind from N
Wind: N 14 mph , 22 km/h, Gust: 22 mph , 35 km/h
Temperature: 54°F , 12°C
Dew Point: 46°F , 8°C
Humidity: 77%
Barometer: 30.04 inHg , 1017.3 hPa
Clouds: Clear
Visibility: 10 miles , 16 km
2020/04/08 01:55 KHAF 080155Z AUTO 35012G19KT 320V020 10SM CLR 12/08 A3004 RMK AO2
 
KWVI - Watsonville, California, USA
Distance from station: SW 184mi, 296km
Updated: Tue, 07-Apr-2020 6:53pm PDT
Clear
Clear
 Wind from calm
Wind: Calm
Temperature: 61°F , 16°C
Dew Point: 46°F , 8°C
Humidity: 59%
Barometer: 29.98 inHg , 1015.2 hPa
Clouds: Clear
Visibility: 10 miles , 16 km
2020/04/08 01:53 KWVI 080153Z AUTO 00000KT 10SM CLR 16/08 A2998 RMK AO2 SLP152 T01560083
KUKI - Ukiah, California, USA
Distance from station: W 187mi, 300km
Updated: Tue, 07-Apr-2020 5:56pm PDT
Few Clouds
Few Clouds
 Wind from NNW
Wind: NNW 8 mph , 13 km/h
Temperature: 63°F , 17°C
Dew Point: 43°F , 6°C
Humidity: 49%
Barometer: 30.05 inHg , 1017.6 hPa
Clouds: Few Clouds
Visibility: 10 miles , 16 km
Cloud details: Few Clouds 10000 ft
2020/04/08 00:56 KUKI 080056Z AUTO 34007KT 10SM FEW100 17/06 A3005 RMK AO2 RAE2358 SLP174 P0000 T01670061
 
KHJO - Hanford, California, USA
Distance from station: S 188mi, 303km
Updated: Tue, 07-Apr-2020 6:53pm PDT
Clear
Clear
 Wind from NW
Wind: NW 9 mph , 15 km/h
Temperature: 63°F , 17°C
Dew Point: 43°F , 6°C
Humidity: 49%
Barometer: 29.93 inHg , 1013.5 hPa
Clouds: Clear
Visibility: 10 miles , 16 km
2020/04/08 01:53 KHJO 080153Z AUTO 32008KT 10SM CLR 17/06 A2993 RMK AO2 SLP136 T01670056
KNLC - Lemoore Nas/Reev, California, USA
Distance from station: S 188mi, 303km
Updated: Tue, 07-Apr-2020 5:56pm PDT
Mostly cloudy
Mostly cloudy
 Wind from N
Wind: N 14 mph , 22 km/h
Temperature: 64°F , 18°C
Dew Point: 39°F , 4°C
Humidity: 40%
Barometer: 29.96 inHg , 1014.6 hPa
Clouds: Mostly cloudy
Visibility: 10 miles , 16 km
Cloud details: Mostly cloudy 7000 ft
Mostly cloudy 20000 ft
2020/04/08 00:56 KNLC 080056Z 35012KT 10SM BKN070 BKN200 18/04 A2996 RMK AO2 SLP144 RH/39 T01780044
 
KVIS - Visalia Muni, California, USA
Distance from station: S 189mi, 304km
Updated: Tue, 07-Apr-2020 5:56pm PDT
Clear
Clear
 Wind from NW
Wind: NW 15 mph , 24 km/h
Temperature: 63°F , 17°C
Dew Point: 43°F , 6°C
Humidity: 49%
Barometer: 29.95 inHg , 1014.2 hPa
Clouds: Clear
Visibility: 10 miles , 16 km
2020/04/08 00:56 KVIS 080056Z AUTO 32013KT 10SM CLR 17/06 A2995 RMK AO2 SLP151 T01720056
KSNS - Salinas, California, USA
Distance from station: SSW 193mi, 311km
Updated: Tue, 07-Apr-2020 6:53pm PDT
Mostly cloudy
Mostly cloudy
 Wind from W
Wind: W 12 mph , 19 km/h
Temperature: 55°F , 13°C
Dew Point: 45°F , 7°C
Humidity: 67%
Barometer: 30.01 inHg , 1016.3 hPa
Clouds: Mostly cloudy
Visibility: 10 miles , 16 km
Cloud details: Mostly cloudy 7000 ft
2020/04/08 01:53 KSNS 080153Z 28010KT 10SM BKN070 13/07 A3001 RMK AO2 SLP171 T01330072
 
K05U - Eureka, Nevada, USA
Distance from station: ENE 203mi, 326km
Updated: Tue, 07-Apr-2020 6:55pm PDT
Clear
Clear
 Wind from SSE
Wind: SSE 13 mph , 20 km/h
Temperature: 50°F , 10°C
Wind Chill: 45°F , 7°C
Dew Point: 30°F , -1°C
Humidity: 47%
Barometer: 30.09 inHg , 1019 hPa
Clouds: Clear
Visibility: 10 miles , 16 km
2020/04/08 01:55 K05U 080155Z AUTO 16011KT 10SM CLR 10/M01 A3009 RMK A01
KP68 - Eureka, Nevada, USA
Distance from station: ENE 203mi, 326km
Updated: Tue, 07-Apr-2020 5:53pm PDT

 Wind from SSE
Wind: SSE 13 mph , 20 km/h
Temperature: 52°F , 11°C
Dew Point: 34°F , 1°C
Humidity: 50%
Barometer: 30.06 inHg , 1017.9 hPa
2020/04/08 00:53 KP68 080053Z AUTO 15011KT 11/01 A3006 RMK AO1 SLP154 T01060006
 
KMRY - Monterey, California, USA
Distance from station: SW 206mi, 331km
Updated: Tue, 07-Apr-2020 6:54pm PDT
Few Clouds
Few Clouds
 Wind from W
Wind: W 9 mph , 15 km/h
Temperature: 57°F , 14°C
Dew Point: 45°F , 7°C
Humidity: 63%
Barometer: 30.02 inHg , 1016.6 hPa
Clouds: Few Clouds
Visibility: 10 miles , 16 km
Cloud details: Few Clouds 6500 ft
2020/04/08 01:54 KMRY 080154Z 28008KT 10SM FEW065 14/07 A3002 RMK AO2 SLP177 T01440067
KO54 - Weaverville, California, USA
Distance from station: NW 207mi, 332km
Updated: Tue, 07-Apr-2020 6:35pm PDT
Partly cloudy
Partly cloudy
 Wind from calm
Wind: Calm
Temperature: 64°F , 18°C
Dew Point: 39°F , 4°C
Humidity: 40%
Barometer: 30.01 inHg , 1016.3 hPa
Clouds: Partly cloudy
Visibility: 10 miles , 16 km
Cloud details: Partly cloudy 11000 ft
2020/04/08 01:35 KO54 080135Z AUTO 00000KT 10SM SCT110 18/04 A3001 RMK AO1
 
KO86 - Trinity Center, California, USA
Distance from station: NW 207mi, 333km
Updated: Tue, 07-Apr-2020 6:50pm PDT
Partly cloudy
Partly cloudy
 Wind from W
Wind: W 5 mph , 7 km/h
Temperature: 59°F , 15°C
Dew Point: 41°F , 5°C
Humidity: 51%
Barometer: 30.01 inHg , 1016.3 hPa
Clouds: Partly cloudy
Visibility: 10 miles , 16 km
Cloud details: Partly cloudy 11000 ft
2020/04/08 01:50 KO86 080150Z AUTO 27004KT 10SM SCT110 15/05 A3001 RMK AO1
KMHS - Mount Shasta, California, USA
Distance from station: NW 209mi, 336km
Updated: Tue, 07-Apr-2020 5:56pm PDT
Overcast
Overcast
 Wind from varies
Wind: varies 6 mph , 9 km/h
Temperature: 63°F , 17°C
Dew Point: 34°F , 1°C
Humidity: 34%
Barometer: 30.01 inHg , 1016.3 hPa
Clouds: Overcast
Visibility: 10 miles , 16 km
Cloud details: Mostly cloudy 7500 ft
Overcast 9500 ft
2020/04/08 00:56 KMHS 080056Z AUTO VRB05KT 10SM BKN075 OVC095 17/01 A3001 RMK AO2 SLP173 T01720011
 
KPTV - Porterville, California, USA
Distance from station: S 212mi, 341km
Updated: Tue, 07-Apr-2020 6:56pm PDT
Overcast
Overcast
 Wind from WNW
Wind: WNW 6 mph , 9 km/h
Temperature: 59°F , 15°C
Dew Point: 46°F , 8°C
Humidity: 63%
Barometer: 29.92 inHg , 1013.2 hPa
Clouds: Overcast
Visibility: 10 miles , 16 km
Cloud details: Overcast 11000 ft
2020/04/08 01:56 KPTV 080156Z AUTO 29005KT 10SM OVC110 15/08 A2992 RMK AO2 SLP134 T01500083
KLKV - Lakeview, Oregon, USA
Distance from station: N 219mi, 353km
Updated: Tue, 07-Apr-2020 6:53pm PDT
Clear
Clear
 Wind from N
Wind: N 5 mph , 7 km/h
Temperature: 55°F , 13°C
Dew Point: 34°F , 1°C
Humidity: 44%
Barometer: 30.06 inHg , 1017.9 hPa
Clouds: Clear
Visibility: 10 miles , 16 km
2020/04/08 01:53 KLKV 080153Z AUTO 35004KT 10SM CLR 13/01 A3006 RMK AO2 SLP180 T01330006
 
KSIY - Montague/Siskiyo, California, USA
Distance from station: NW 237mi, 382km
Updated: Tue, 07-Apr-2020 6:53pm PDT
Clear
Clear
 Wind from N
Wind: N 12 mph , 19 km/h
Temperature: 66°F , 19°C
Dew Point: 34°F , 1°C
Humidity: 30%
Barometer: 30.01 inHg , 1016.3 hPa
Clouds: Clear
Visibility: 10 miles , 16 km
2020/04/08 01:53 KSIY 080153Z AUTO 35010KT 10SM CLR 19/01 A3001 RMK AO2 SLP172 T01890006
KPRB - Paso Robles, California, USA
Distance from station: SSW 238mi, 383km
Updated: Tue, 07-Apr-2020 6:53pm PDT
Partly cloudy
Partly cloudy
 Wind from NW
Wind: NW 7 mph , 11 km/h
Temperature: 57°F , 14°C
Dew Point: 41°F , 5°C
Humidity: 55%
Barometer: 29.94 inHg , 1013.9 hPa
Clouds: Partly cloudy
Visibility: 10 miles , 16 km
Cloud details: Partly cloudy 12000 ft
2020/04/08 01:53 KPRB 080153Z AUTO 31006KT 10SM SCT120 14/05 A2994 RMK AO2 SLP139 T01440050
 
KLMT - Klamath Falls, Oregon, USA
Distance from station: NNW 239mi, 385km
Updated: Tue, 07-Apr-2020 6:53pm PDT
Clear
Clear
 Wind from NNW
Wind: NNW 12 mph , 19 km/h
Temperature: 59°F , 15°C
Dew Point: 27°F , -3°C
Humidity: 29%
Barometer: 30.04 inHg , 1017.3 hPa
Clouds: Clear
Visibility: 10 miles , 16 km
2020/04/08 01:53 KLMT 080153Z 34010KT 10SM CLR 15/M03 A3004 RMK AO2 SLP169 T01501033
KEKO - Elko, Nevada, USA
Distance from station: ENE 242mi, 390km
Updated: Tue, 07-Apr-2020 5:56pm PDT
Few Clouds
Few Clouds
 Wind from varies
Wind: varies 5 mph , 7 km/h
Temperature: 61°F , 16°C
Dew Point: 28°F , -2°C
Humidity: 29%
Barometer: 30.03 inHg , 1016.9 hPa
Clouds: Few Clouds
Visibility: 10 miles , 16 km
Cloud details: Few Clouds 11000 ft
2020/04/08 00:56 KEKO 080056Z AUTO VRB04KT 10SM FEW110 16/M02 A3003 RMK AO2 SLP154 T01561017
 
KBFL - Bakersfield, California, USA
Distance from station: S 252mi, 405km
Updated: Tue, 07-Apr-2020 6:54pm PDT
Rain, Mist, Overcast
Rain, Mist, Overcast
 Wind from SW
Wind: SW 8 mph , 13 km/h
Temperature: 54°F , 12°C
Dew Point: 50°F , 10°C
Humidity: 88%
Barometer: 29.96 inHg , 1014.6 hPa
Summary: Rain, Mist
Clouds: Overcast
Visibility: 4 miles , 6 km
Cloud details: Partly cloudy 4000 ft
Overcast 5000 ft
2020/04/08 01:54 KBFL 080154Z 23007KT 4SM RA BR SCT040 OVC050 12/10 A2996 RMK AO2 SLP144 P0008 T01220100
KFOT - Fortuna, California, USA
Distance from station: WNW 256mi, 413km
Updated: Tue, 07-Apr-2020 6:55pm PDT
Overcast
Overcast
 Wind from calm
Wind: Calm
Temperature: 50°F , 10°C
Dew Point: 46°F , 8°C
Humidity: 88%
Barometer: 30.12 inHg , 1020 hPa
Clouds: Overcast
Visibility: 9 miles , 14 km
Cloud details: Overcast 1300 ft
2020/04/08 01:55 KFOT 080155Z AUTO 00000KT 9SM OVC013 10/08 A3012 RMK AO1
 
KNID - China Lake (naf), California, USA
Distance from station: SSE 259mi, 417km
Updated: Tue, 07-Apr-2020 5:56pm PDT
Light rain, Overcast
Light rain, Overcast
 Wind from E
Wind: E 12 mph , 19 km/h
Temperature: 57°F , 14°C
Dew Point: 41°F , 5°C
Humidity: 55%
Barometer: 29.96 inHg , 1014.6 hPa
Summary: Light rain
Clouds: Overcast
Visibility: 10 miles , 16 km
Cloud details: Overcast 5500 ft
2020/04/08 00:56 KNID 080056Z 10010KT 10SM -RA OVC055 14/05 A2996 RMK AO2 RAB25E38B54 SLP146 P0000 T01390050 $
KDRA - Desert R/Mercury, Nevada, USA
Distance from station: SE 262mi, 421km
Updated: Sat, 28-Mar-2020 1:53pm PDT
NOT Current
Clear
Clear
 Wind from WSW
Wind: WSW 8 mph , 13 km/h
Temperature: 59°F , 15°C
Dew Point: 19°F , -7°C
Humidity: 21%
Barometer: 30.08 inHg , 1018.6 hPa
Clouds: Clear
Visibility: 10 miles , 16 km
2020/03/28 20:53 KDRA 282053Z AUTO 24007KT 10SM CLR 15/M07 A3008 RMK AO2 SLP170 T01501067 58020
 
KELY - Ely, Nevada, USA
Distance from station: E 262mi, 421km
Updated: Tue, 07-Apr-2020 6:53pm PDT
Overcast
Overcast
 Wind from SSW
Wind: SSW 3 mph , 6 km/h
Temperature: 45°F , 7°C
Dew Point: 34°F , 1°C
Humidity: 66%
Barometer: 30.10 inHg , 1019.3 hPa
Clouds: Overcast
Visibility: 10 miles , 16 km
Cloud details: Overcast 9500 ft
2020/04/08 01:53 KELY 080153Z AUTO 20003KT 10SM OVC095 07/01 A3010 RMK AO2 RAB25E36 SLP168 P0000 T00720006
KREO - Rome, Oregon, USA
Distance from station: NNE 263mi, 424km
Updated: Tue, 07-Apr-2020 6:52pm PDT

 Wind from NE
Wind: NE 8 mph , 13 km/h
Temperature: 59°F , 15°C
Dew Point: 32°F , 0°C
Humidity: 36%
Barometer: 30.03 inHg , 1016.9 hPa
2020/04/08 01:52 KREO 080152Z AUTO 04007KT 15/00 A3003 RMK AO1 SLP173 T01500000
 
KACV - Arcata/Eureka, California, USA
Distance from station: WNW 268mi, 431km
Updated: Tue, 07-Apr-2020 6:53pm PDT
Overcast
Overcast
 Wind from WNW
Wind: WNW 6 mph , 9 km/h
Temperature: 52°F , 11°C
Dew Point: 45°F , 7°C
Humidity: 77%
Barometer: 30.11 inHg , 1019.6 hPa
Clouds: Overcast
Visibility: 10 miles , 16 km
Cloud details: Overcast 1500 ft
2020/04/08 01:53 KACV 080153Z AUTO 29005KT 10SM OVC015 11/07 A3011 RMK AO2 SLP204 T01110072
KSBP - San Luis Obispo, California, USA
Distance from station: S 268mi, 431km
Updated: Tue, 07-Apr-2020 5:56pm PDT
Overcast
Overcast
 Wind from NW
Wind: NW 12 mph , 19 km/h
Temperature: 54°F , 12°C
Dew Point: 39°F , 4°C
Humidity: 58%
Barometer: 29.99 inHg , 1015.6 hPa
Clouds: Overcast
Visibility: 10 miles , 16 km
Cloud details: Overcast 6500 ft
2020/04/08 00:56 KSBP 080056Z 31010KT 10SM OVC065 12/04 A2999 RMK AO2 SLP156 T01220044
 
KINS - Indian Springs, Nevada, USA
Distance from station: SE 279mi, 449km
Updated: Tue, 07-Apr-2020 5:58pm PDT
Clear
Clear
 Wind from calm
Wind: Calm
Temperature: 57°F , 14°C
Dew Point: 43°F , 6°C
Humidity: 59%
Barometer: 29.98 inHg , 1015.2 hPa
Clouds: Clear
Visibility: 10 miles , 16 km
2020/04/08 00:58 KINS 080058Z AUTO 00000KT 10SM CLR 14/06 A2998 RMK AO2 SLP136 T01390055 $
KTSP - Tehachapi, California, USA
Distance from station: SSE 279mi, 449km
Updated: Tue, 07-Apr-2020 6:35pm PDT
Light rain, Overcast
Light rain, Overcast
 Wind from calm
Wind: Calm
Temperature: 41°F , 5°C
Dew Point: 39°F , 4°C
Humidity: 93%
Barometer: 29.95 inHg , 1014.2 hPa
Summary: Light rain
Clouds: Overcast
Visibility: 2 miles , 3 km
Cloud details: Mostly cloudy 1400 ft
Overcast 2100 ft
2020/04/08 01:35 KTSP 080135Z AUTO 00000KT 2SM -RA BKN014 OVC021 05/04 A2995 RMK AO2 P0012
 
KMFR - Medford, Oregon, USA
Distance from station: NW 284mi, 457km
Updated: Tue, 07-Apr-2020 6:53pm PDT
Clear
Clear
 Wind from W
Wind: W 8 mph , 13 km/h
Temperature: 66°F , 19°C
Dew Point: 39°F , 4°C
Humidity: 37%
Barometer: 30.03 inHg , 1016.9 hPa
Clouds: Clear
Visibility: 10 miles , 16 km
2020/04/08 01:53 KMFR 080153Z 28007KT 10SM CLR 19/04 A3003 RMK AO2 SLP167 T01940044
KMHV - Mojave, California, USA
Distance from station: SSE 288mi, 463km
Updated: Tue, 07-Apr-2020 6:40pm PDT
Mist, Overcast
Mist, Overcast
 Wind from NNE
Wind: NNE 16 mph , 26 km/h
Temperature: 46°F , 8°C
Wind Chill: 39°F , 4°C
Dew Point: 46°F , 8°C
Humidity: 100%
Barometer: 29.93 inHg , 1013.5 hPa
Summary: Mist
Clouds: Overcast
Visibility: 5 miles , 8 km
Cloud details: Partly cloudy 2700 ft
Mostly cloudy 3400 ft
Overcast 5000 ft
2020/04/08 01:40 KMHV 080140Z AUTO 02014KT 5SM BR SCT027 BKN034 OVC050 08/08 A2993 RMK A01
 
KSMX - Santa Maria, California, USA
Distance from station: S 289mi, 465km
Updated: Tue, 07-Apr-2020 6:51pm PDT
Overcast
Overcast
 Wind from WNW
Wind: WNW 7 mph , 11 km/h
Temperature: 52°F , 11°C
Dew Point: 46°F , 8°C
Humidity: 82%
Barometer: 29.99 inHg , 1015.6 hPa
Clouds: Overcast
Visibility: 10 miles , 16 km
Cloud details: Mostly cloudy 4700 ft
Mostly cloudy 6500 ft
Overcast 8500 ft
2020/04/08 01:51 KSMX 080151Z 29006KT 10SM BKN047 BKN065 OVC085 11/08 A2999 RMK AO2 RAE21 SLP161 P0000 T01060078
K9L2 - Edwards N-Aux, California, USA
Distance from station: SSE 299mi, 482km
Updated: Tue, 07-Apr-2020 6:43pm PDT
Light rain, Mostly cloudy
Light rain, Mostly cloudy
 Wind from NNW
Wind: NNW 10 mph , 17 km/h
Temperature: 48°F , 9°C
Wind Chill: 44°F , 7°C
Dew Point: 46°F , 8°C
Humidity: 94%
Barometer: 29.92 inHg , 1013.2 hPa
Summary: Light rain
Clouds: Mostly cloudy
Visibility: 7 miles , 11 km
Cloud details: Few Clouds 2100 ft
Mostly cloudy 3300 ft
2020/04/08 01:43 K9L2 080143Z AUTO 33009KT 7SM -RA FEW021 BKN033 09/08 A2992 RMK AO2 SLP132
Honor Flight NV - Honoring all of our Veterans CoCoRaHS (Community Collaborative Rain, Hail and Snow Network) Station Number: NV-DG-2 Live Lightning Map - USA Reno Skywarn Spotter ID: DO21 AlertID Southwestern Weather Network Carson Valley Community Food Closet - providing for the needs of our community